sensor_id;sensor_type;location;lat;lon;timestamp;temperature;humidity
851;DHT22;412;51.400;7.480;2022-12-24T00:01:26;12.80;99.90
851;DHT22;412;51.400;7.480;2022-12-24T00:03:52;12.80;99.90
851;DHT22;412;51.400;7.480;2022-12-24T00:06:22;12.80;99.90
851;DHT22;412;51.400;7.480;2022-12-24T00:08:48;12.90;99.90
851;DHT22;412;51.400;7.480;2022-12-24T00:11:16;12.90;99.90
851;DHT22;412;51.400;7.480;2022-12-24T00:13:42;12.90;99.90
851;DHT22;412;51.400;7.480;2022-12-24T00:16:08;12.90;99.90
851;DHT22;412;51.400;7.480;2022-12-24T00:18:34;12.80;99.90
851;DHT22;412;51.400;7.480;2022-12-24T00:20:59;12.90;99.90
851;DHT22;412;51.400;7.480;2022-12-24T00:23:28;12.90;99.90
851;DHT22;412;51.400;7.480;2022-12-24T00:25:54;12.80;99.90
851;DHT22;412;51.400;7.480;2022-12-24T00:28:21;12.80;99.90
851;DHT22;412;51.400;7.480;2022-12-24T00:30:47;12.80;99.90
851;DHT22;412;51.400;7.480;2022-12-24T00:33:13;12.80;99.90
851;DHT22;412;51.400;7.480;2022-12-24T00:35:39;12.90;99.90
851;DHT22;412;51.400;7.480;2022-12-24T00:38:06;12.80;99.90
851;DHT22;412;51.400;7.480;2022-12-24T00:40:32;12.80;99.90
851;DHT22;412;51.400;7.480;2022-12-24T00:42:58;12.80;99.90
851;DHT22;412;51.400;7.480;2022-12-24T00:45:24;12.80;99.90
851;DHT22;412;51.400;7.480;2022-12-24T00:47:51;12.80;99.90
851;DHT22;412;51.400;7.480;2022-12-24T00:50:17;12.80;99.90
851;DHT22;412;51.400;7.480;2022-12-24T00:52:42;12.80;99.90
851;DHT22;412;51.400;7.480;2022-12-24T00:55:08;12.70;99.90
851;DHT22;412;51.400;7.480;2022-12-24T00:57:34;12.70;99.90
851;DHT22;412;51.400;7.480;2022-12-24T00:59:59;12.70;99.90
851;DHT22;412;51.400;7.480;2022-12-24T01:02:26;12.70;99.90
851;DHT22;412;51.400;7.480;2022-12-24T01:04:51;12.70;99.90
851;DHT22;412;51.400;7.480;2022-12-24T01:07:44;12.80;99.90
851;DHT22;412;51.400;7.480;2022-12-24T01:10:15;12.70;99.90
851;DHT22;412;51.400;7.480;2022-12-24T01:12:42;12.70;99.90
851;DHT22;412;51.400;7.480;2022-12-24T01:15:08;12.70;99.90
851;DHT22;412;51.400;7.480;2022-12-24T01:17:35;12.60;99.90
851;DHT22;412;51.400;7.480;2022-12-24T01:20:01;12.60;99.90
851;DHT22;412;51.400;7.480;2022-12-24T01:22:27;12.70;99.90
851;DHT22;412;51.400;7.480;2022-12-24T01:24:53;12.70;99.90
851;DHT22;412;51.400;7.480;2022-12-24T01:27:21;12.70;99.90
851;DHT22;412;51.400;7.480;2022-12-24T01:29:46;12.70;99.90
851;DHT22;412;51.400;7.480;2022-12-24T01:32:12;12.60;99.90
851;DHT22;412;51.400;7.480;2022-12-24T01:34:38;12.70;99.90
851;DHT22;412;51.400;7.480;2022-12-24T01:37:03;12.70;99.90
851;DHT22;412;51.400;7.480;2022-12-24T01:39:29;12.60;99.90
851;DHT22;412;51.400;7.480;2022-12-24T01:41:55;12.70;99.90
851;DHT22;412;51.400;7.480;2022-12-24T01:44:42;12.60;99.90
851;DHT22;412;51.400;7.480;2022-12-24T01:47:13;12.50;99.90
851;DHT22;412;51.400;7.480;2022-12-24T01:49:50;12.50;99.90
851;DHT22;412;51.400;7.480;2022-12-24T01:52:20;12.60;99.90
851;DHT22;412;51.400;7.480;2022-12-24T01:54:51;12.60;99.90
851;DHT22;412;51.400;7.480;2022-12-24T01:57:27;12.70;99.90
851;DHT22;412;51.400;7.480;2022-12-24T01:59:56;12.70;99.90
851;DHT22;412;51.400;7.480;2022-12-24T02:02:24;12.70;99.90
851;DHT22;412;51.400;7.480;2022-12-24T02:05:14;12.70;99.90
851;DHT22;412;51.400;7.480;2022-12-24T02:07:41;12.70;99.90
851;DHT22;412;51.400;7.480;2022-12-24T02:10:11;12.70;99.90
851;DHT22;412;51.400;7.480;2022-12-24T02:12:38;12.70;99.90
851;DHT22;412;51.400;7.480;2022-12-24T02:15:07;12.70;99.90
851;DHT22;412;51.400;7.480;2022-12-24T02:17:44;12.70;99.90
851;DHT22;412;51.400;7.480;2022-12-24T02:32:07;12.60;99.90
851;DHT22;412;51.400;7.480;2022-12-24T02:34:44;12.60;99.90
851;DHT22;412;51.400;7.480;2022-12-24T02:37:21;12.60;99.90
851;DHT22;412;51.400;7.480;2022-12-24T02:40:02;12.60;99.90
851;DHT22;412;51.400;7.480;2022-12-24T02:42:36;12.60;99.90
851;DHT22;412;51.400;7.480;2022-12-24T02:45:12;12.60;99.90
851;DHT22;412;51.400;7.480;2022-12-24T02:47:41;12.60;99.90
851;DHT22;412;51.400;7.480;2022-12-24T02:50:10;12.60;99.90
851;DHT22;412;51.400;7.480;2022-12-24T02:52:39;12.50;99.90
851;DHT22;412;51.400;7.480;2022-12-24T02:55:29;12.50;99.90
851;DHT22;412;51.400;7.480;2022-12-24T03:01:08;12.60;99.90
851;DHT22;412;51.400;7.480;2022-12-24T03:06:41;12.40;99.90
851;DHT22;412;51.400;7.480;2022-12-24T03:09:32;12.50;99.90
851;DHT22;412;51.400;7.480;2022-12-24T03:12:08;12.50;99.90
851;DHT22;412;51.400;7.480;2022-12-24T03:14:36;12.60;99.90
851;DHT22;412;51.400;7.480;2022-12-24T03:17:03;12.60;99.90
851;DHT22;412;51.400;7.480;2022-12-24T03:19:30;12.60;99.90
851;DHT22;412;51.400;7.480;2022-12-24T03:21:57;12.60;99.90
851;DHT22;412;51.400;7.480;2022-12-24T03:24:24;12.60;99.90
851;DHT22;412;51.400;7.480;2022-12-24T03:26:50;12.70;99.90
851;DHT22;412;51.400;7.480;2022-12-24T03:29:17;12.70;99.90
851;DHT22;412;51.400;7.480;2022-12-24T03:31:49;12.70;99.90
851;DHT22;412;51.400;7.480;2022-12-24T03:34:15;12.60;99.90
851;DHT22;412;51.400;7.480;2022-12-24T03:36:41;12.60;99.90
851;DHT22;412;51.400;7.480;2022-12-24T03:39:08;12.60;99.90
851;DHT22;412;51.400;7.480;2022-12-24T03:41:34;12.60;99.90
851;DHT22;412;51.400;7.480;2022-12-24T03:44:00;12.60;99.90
851;DHT22;412;51.400;7.480;2022-12-24T03:46:26;12.50;99.90
851;DHT22;412;51.400;7.480;2022-12-24T03:48:52;12.60;99.90
851;DHT22;412;51.400;7.480;2022-12-24T03:51:20;12.60;99.90
851;DHT22;412;51.400;7.480;2022-12-24T03:53:47;12.70;99.90
851;DHT22;412;51.400;7.480;2022-12-24T03:56:13;12.70;99.90
851;DHT22;412;51.400;7.480;2022-12-24T03:58:38;12.70;99.90
851;DHT22;412;51.400;7.480;2022-12-24T04:01:04;12.70;99.90
851;DHT22;412;51.400;7.480;2022-12-24T04:03:30;12.70;99.90
851;DHT22;412;51.400;7.480;2022-12-24T04:06:08;12.70;99.90
851;DHT22;412;51.400;7.480;2022-12-24T04:08:34;12.80;99.90
851;DHT22;412;51.400;7.480;2022-12-24T04:11:08;12.80;99.90
851;DHT22;412;51.400;7.480;2022-12-24T04:13:34;12.80;99.90
851;DHT22;412;51.400;7.480;2022-12-24T04:16:02;12.80;99.90
851;DHT22;412;51.400;7.480;2022-12-24T04:18:28;12.80;99.90
851;DHT22;412;51.400;7.480;2022-12-24T04:20:55;12.90;99.90
851;DHT22;412;51.400;7.480;2022-12-24T04:23:21;12.80;99.90
851;DHT22;412;51.400;7.480;2022-12-24T04:25:47;12.90;99.90
851;DHT22;412;51.400;7.480;2022-12-24T04:28:13;12.90;99.90
851;DHT22;412;51.400;7.480;2022-12-24T04:30:40;12.80;99.90
851;DHT22;412;51.400;7.480;2022-12-24T04:33:06;12.90;99.90
851;DHT22;412;51.400;7.480;2022-12-24T04:35:32;12.90;99.90
851;DHT22;412;51.400;7.480;2022-12-24T04:37:58;12.90;99.90
851;DHT22;412;51.400;7.480;2022-12-24T04:40:25;13.00;99.90
851;DHT22;412;51.400;7.480;2022-12-24T04:42:50;12.90;99.90
851;DHT22;412;51.400;7.480;2022-12-24T04:45:17;12.90;99.90
851;DHT22;412;51.400;7.480;2022-12-24T04:47:42;12.90;99.90
851;DHT22;412;51.400;7.480;2022-12-24T04:50:08;12.90;99.90
851;DHT22;412;51.400;7.480;2022-12-24T04:52:34;12.90;99.90
851;DHT22;412;51.400;7.480;2022-12-24T04:55:00;12.80;99.90
851;DHT22;412;51.400;7.480;2022-12-24T04:57:26;12.80;99.90
851;DHT22;412;51.400;7.480;2022-12-24T04:59:51;12.70;99.90
851;DHT22;412;51.400;7.480;2022-12-24T05:02:17;12.80;99.90
851;DHT22;412;51.400;7.480;2022-12-24T05:04:43;12.80;99.90
851;DHT22;412;51.400;7.480;2022-12-24T05:07:09;12.80;99.90
851;DHT22;412;51.400;7.480;2022-12-24T05:09:34;12.80;99.90
851;DHT22;412;51.400;7.480;2022-12-24T05:12:00;12.80;99.90
851;DHT22;412;51.400;7.480;2022-12-24T05:14:25;12.80;99.90
851;DHT22;412;51.400;7.480;2022-12-24T05:16:51;12.80;99.90
851;DHT22;412;51.400;7.480;2022-12-24T05:19:17;12.90;99.90
851;DHT22;412;51.400;7.480;2022-12-24T05:21:42;12.80;99.90
851;DHT22;412;51.400;7.480;2022-12-24T05:24:10;12.80;99.90
851;DHT22;412;51.400;7.480;2022-12-24T05:26:56;12.80;99.90
851;DHT22;412;51.400;7.480;2022-12-24T05:29:23;12.80;99.90
851;DHT22;412;51.400;7.480;2022-12-24T05:31:49;12.80;99.90
851;DHT22;412;51.400;7.480;2022-12-24T05:34:15;12.80;99.90
851;DHT22;412;51.400;7.480;2022-12-24T05:36:42;12.80;99.90
851;DHT22;412;51.400;7.480;2022-12-24T05:39:08;12.80;99.90
851;DHT22;412;51.400;7.480;2022-12-24T05:41:35;12.80;99.90
851;DHT22;412;51.400;7.480;2022-12-24T05:44:01;12.80;99.90
851;DHT22;412;51.400;7.480;2022-12-24T05:46:27;12.90;99.90
851;DHT22;412;51.400;7.480;2022-12-24T05:48:53;12.90;99.90
851;DHT22;412;51.400;7.480;2022-12-24T05:51:20;12.90;99.90
851;DHT22;412;51.400;7.480;2022-12-24T05:53:48;12.80;99.90
851;DHT22;412;51.400;7.480;2022-12-24T05:56:25;12.90;99.90
851;DHT22;412;51.400;7.480;2022-12-24T05:58:52;12.90;99.90
851;DHT22;412;51.400;7.480;2022-12-24T06:01:18;12.90;99.90
851;DHT22;412;51.400;7.480;2022-12-24T06:03:44;12.80;99.90
851;DHT22;412;51.400;7.480;2022-12-24T06:06:15;12.80;99.90
851;DHT22;412;51.400;7.480;2022-12-24T06:08:45;12.80;99.90
851;DHT22;412;51.400;7.480;2022-12-24T06:11:14;12.80;99.90
851;DHT22;412;51.400;7.480;2022-12-24T06:13:40;12.80;99.90
851;DHT22;412;51.400;7.480;2022-12-24T06:16:09;12.70;99.90
851;DHT22;412;51.400;7.480;2022-12-24T06:18:36;12.70;99.90
851;DHT22;412;51.400;7.480;2022-12-24T06:21:02;12.70;99.90
851;DHT22;412;51.400;7.480;2022-12-24T06:23:30;12.80;99.90
851;DHT22;412;51.400;7.480;2022-12-24T06:25:57;12.80;99.90
851;DHT22;412;51.400;7.480;2022-12-24T06:28:25;12.80;99.90
851;DHT22;412;51.400;7.480;2022-12-24T06:30:51;12.80;99.90
851;DHT22;412;51.400;7.480;2022-12-24T06:33:17;12.80;99.90
851;DHT22;412;51.400;7.480;2022-12-24T06:35:44;12.90;99.90
851;DHT22;412;51.400;7.480;2022-12-24T06:38:10;12.90;99.90
851;DHT22;412;51.400;7.480;2022-12-24T06:40:40;12.70;99.90
851;DHT22;412;51.400;7.480;2022-12-24T06:43:09;12.70;99.90
851;DHT22;412;51.400;7.480;2022-12-24T06:45:35;12.80;99.90
851;DHT22;412;51.400;7.480;2022-12-24T06:48:01;12.80;99.90
851;DHT22;412;51.400;7.480;2022-12-24T06:50:27;12.70;99.90
851;DHT22;412;51.400;7.480;2022-12-24T06:52:53;12.70;99.90
851;DHT22;412;51.400;7.480;2022-12-24T06:55:19;12.70;99.90
851;DHT22;412;51.400;7.480;2022-12-24T06:57:44;12.70;99.90
851;DHT22;412;51.400;7.480;2022-12-24T07:00:11;12.70;99.90
851;DHT22;412;51.400;7.480;2022-12-24T07:02:41;12.70;99.90
851;DHT22;412;51.400;7.480;2022-12-24T07:05:09;12.70;99.90
851;DHT22;412;51.400;7.480;2022-12-24T07:07:41;12.70;99.90
851;DHT22;412;51.400;7.480;2022-12-24T07:10:11;12.80;99.90
851;DHT22;412;51.400;7.480;2022-12-24T07:12:37;12.70;99.90
851;DHT22;412;51.400;7.480;2022-12-24T07:15:03;12.60;99.90
851;DHT22;412;51.400;7.480;2022-12-24T07:17:29;12.60;99.90
851;DHT22;412;51.400;7.480;2022-12-24T07:19:54;12.60;99.90
851;DHT22;412;51.400;7.480;2022-12-24T07:22:20;12.60;99.90
851;DHT22;412;51.400;7.480;2022-12-24T07:24:46;12.50;99.90
851;DHT22;412;51.400;7.480;2022-12-24T07:27:11;12.60;99.90
851;DHT22;412;51.400;7.480;2022-12-24T07:29:37;12.60;99.90
851;DHT22;412;51.400;7.480;2022-12-24T07:32:05;12.60;99.90
851;DHT22;412;51.400;7.480;2022-12-24T07:34:30;12.60;99.90
851;DHT22;412;51.400;7.480;2022-12-24T07:36:56;12.60;99.90
851;DHT22;412;51.400;7.480;2022-12-24T07:39:22;12.60;99.90
851;DHT22;412;51.400;7.480;2022-12-24T07:41:48;12.60;99.90
851;DHT22;412;51.400;7.480;2022-12-24T07:44:15;12.50;99.90
851;DHT22;412;51.400;7.480;2022-12-24T07:46:42;12.60;99.90
851;DHT22;412;51.400;7.480;2022-12-24T07:49:07;12.60;99.90
851;DHT22;412;51.400;7.480;2022-12-24T07:51:33;12.70;99.90
851;DHT22;412;51.400;7.480;2022-12-24T07:53:59;12.70;99.90
851;DHT22;412;51.400;7.480;2022-12-24T07:56:25;12.70;99.90
851;DHT22;412;51.400;7.480;2022-12-24T07:58:51;12.70;99.90
851;DHT22;412;51.400;7.480;2022-12-24T08:01:17;12.80;99.90
851;DHT22;412;51.400;7.480;2022-12-24T08:03:43;12.70;99.90
851;DHT22;412;51.400;7.480;2022-12-24T08:06:10;12.70;99.90
851;DHT22;412;51.400;7.480;2022-12-24T08:08:36;12.70;99.90
851;DHT22;412;51.400;7.480;2022-12-24T08:11:04;12.70;99.90
851;DHT22;412;51.400;7.480;2022-12-24T08:13:31;12.70;99.90
851;DHT22;412;51.400;7.480;2022-12-24T08:15:58;12.90;99.90
851;DHT22;412;51.400;7.480;2022-12-24T08:18:24;13.20;99.90
851;DHT22;412;51.400;7.480;2022-12-24T08:20:50;13.60;99.90
851;DHT22;412;51.400;7.480;2022-12-24T08:23:16;13.90;99.90
851;DHT22;412;51.400;7.480;2022-12-24T08:25:44;13.90;99.90
851;DHT22;412;51.400;7.480;2022-12-24T08:28:10;13.90;99.90
851;DHT22;412;51.400;7.480;2022-12-24T08:30:36;14.00;99.90
851;DHT22;412;51.400;7.480;2022-12-24T08:33:02;13.90;99.90
851;DHT22;412;51.400;7.480;2022-12-24T08:35:27;14.00;99.90
851;DHT22;412;51.400;7.480;2022-12-24T08:37:53;14.00;99.90
851;DHT22;412;51.400;7.480;2022-12-24T08:40:19;14.00;99.90
851;DHT22;412;51.400;7.480;2022-12-24T08:42:45;14.10;99.90
851;DHT22;412;51.400;7.480;2022-12-24T08:45:11;14.30;99.90
851;DHT22;412;51.400;7.480;2022-12-24T08:47:39;14.30;99.90
851;DHT22;412;51.400;7.480;2022-12-24T08:50:06;14.20;99.90
851;DHT22;412;51.400;7.480;2022-12-24T08:52:32;14.40;99.90
851;DHT22;412;51.400;7.480;2022-12-24T08:54:58;14.20;99.90
851;DHT22;412;51.400;7.480;2022-12-24T08:57:24;14.10;99.90
851;DHT22;412;51.400;7.480;2022-12-24T08:59:49;13.90;99.90
851;DHT22;412;51.400;7.480;2022-12-24T09:02:15;13.80;99.90
851;DHT22;412;51.400;7.480;2022-12-24T09:04:41;13.70;99.90
851;DHT22;412;51.400;7.480;2022-12-24T09:07:08;13.70;99.90
851;DHT22;412;51.400;7.480;2022-12-24T09:09:35;13.60;99.90
851;DHT22;412;51.400;7.480;2022-12-24T09:12:00;13.50;99.90
851;DHT22;412;51.400;7.480;2022-12-24T09:14:28;13.40;99.90
851;DHT22;412;51.400;7.480;2022-12-24T09:16:53;13.40;99.90
851;DHT22;412;51.400;7.480;2022-12-24T09:19:19;13.50;99.90
851;DHT22;412;51.400;7.480;2022-12-24T09:21:45;13.50;99.90
851;DHT22;412;51.400;7.480;2022-12-24T09:24:10;13.50;99.90
851;DHT22;412;51.400;7.480;2022-12-24T09:26:39;13.60;99.90
851;DHT22;412;51.400;7.480;2022-12-24T09:29:05;13.90;99.90
851;DHT22;412;51.400;7.480;2022-12-24T09:31:31;14.10;99.90
851;DHT22;412;51.400;7.480;2022-12-24T09:33:58;14.40;99.90
851;DHT22;412;51.400;7.480;2022-12-24T09:36:23;14.60;99.90
851;DHT22;412;51.400;7.480;2022-12-24T09:38:50;14.50;99.90
851;DHT22;412;51.400;7.480;2022-12-24T09:47:36;15.10;99.90
851;DHT22;412;51.400;7.480;2022-12-24T11:35:53;16.70;99.90
851;DHT22;412;51.400;7.480;2022-12-24T11:38:22;16.40;99.90
851;DHT22;412;51.400;7.480;2022-12-24T11:41:14;16.40;99.90
851;DHT22;412;51.400;7.480;2022-12-24T11:43:42;16.50;99.90
851;DHT22;412;51.400;7.480;2022-12-24T11:49:16;16.20;99.90
851;DHT22;412;51.400;7.480;2022-12-24T11:57:30;15.60;99.90
851;DHT22;412;51.400;7.480;2022-12-24T11:59:59;15.50;99.90
851;DHT22;412;51.400;7.480;2022-12-24T12:02:28;15.30;99.90
851;DHT22;412;51.400;7.480;2022-12-24T12:04:59;15.10;99.90
851;DHT22;412;51.400;7.480;2022-12-24T12:07:33;15.00;99.90
851;DHT22;412;51.400;7.480;2022-12-24T12:12:33;14.70;99.90
851;DHT22;412;51.400;7.480;2022-12-24T12:15:04;14.50;99.90
851;DHT22;412;51.400;7.480;2022-12-24T12:17:57;14.40;99.90
851;DHT22;412;51.400;7.480;2022-12-24T12:20:41;14.30;99.90
851;DHT22;412;51.400;7.480;2022-12-24T12:23:34;14.10;99.90
851;DHT22;412;51.400;7.480;2022-12-24T12:28:36;14.10;99.90
851;DHT22;412;51.400;7.480;2022-12-24T12:33:56;14.10;99.90
851;DHT22;412;51.400;7.480;2022-12-24T12:36:53;14.10;99.90
851;DHT22;412;51.400;7.480;2022-12-24T12:39:18;14.10;99.90
851;DHT22;412;51.400;7.480;2022-12-24T12:45:06;14.20;99.90
851;DHT22;412;51.400;7.480;2022-12-24T12:50:35;14.20;99.90
851;DHT22;412;51.400;7.480;2022-12-24T12:56:22;14.10;99.90
851;DHT22;412;51.400;7.480;2022-12-24T12:59:19;14.10;99.90
851;DHT22;412;51.400;7.480;2022-12-24T13:20:28;15.80;99.90
851;DHT22;412;51.400;7.480;2022-12-24T13:25:51;15.90;99.90
851;DHT22;412;51.400;7.480;2022-12-24T13:31:33;16.00;99.90
851;DHT22;412;51.400;7.480;2022-12-24T13:36:07;16.10;99.90
851;DHT22;412;51.400;7.480;2022-12-24T13:49:21;16.30;99.90
851;DHT22;412;51.400;7.480;2022-12-24T13:51:50;16.40;99.90
851;DHT22;412;51.400;7.480;2022-12-24T13:54:19;16.40;99.90
851;DHT22;412;51.400;7.480;2022-12-24T13:56:46;16.40;99.90
851;DHT22;412;51.400;7.480;2022-12-24T13:59:35;16.50;99.90
851;DHT22;412;51.400;7.480;2022-12-24T14:02:03;16.50;99.90
851;DHT22;412;51.400;7.480;2022-12-24T14:04:34;16.40;99.90
851;DHT22;412;51.400;7.480;2022-12-24T14:07:01;16.20;99.90
851;DHT22;412;51.400;7.480;2022-12-24T14:09:47;16.10;99.90
851;DHT22;412;51.400;7.480;2022-12-24T14:12:32;15.80;99.90
851;DHT22;412;51.400;7.480;2022-12-24T14:18:16;15.20;99.90
851;DHT22;412;51.400;7.480;2022-12-24T14:20:42;15.10;99.90
851;DHT22;412;51.400;7.480;2022-12-24T14:23:30;14.90;99.90
851;DHT22;412;51.400;7.480;2022-12-24T14:25:59;14.80;99.90
851;DHT22;412;51.400;7.480;2022-12-24T14:28:33;14.60;99.90
851;DHT22;412;51.400;7.480;2022-12-24T14:31:03;14.60;99.90
851;DHT22;412;51.400;7.480;2022-12-24T14:33:30;14.40;99.90
851;DHT22;412;51.400;7.480;2022-12-24T14:35:56;14.40;99.90
851;DHT22;412;51.400;7.480;2022-12-24T14:38:23;14.30;99.90
851;DHT22;412;51.400;7.480;2022-12-24T14:54:34;14.00;99.90
851;DHT22;412;51.400;7.480;2022-12-24T14:59:50;13.80;99.90
851;DHT22;412;51.400;7.480;2022-12-24T15:02:42;13.80;99.90
851;DHT22;412;51.400;7.480;2022-12-24T15:05:18;13.80;99.90
851;DHT22;412;51.400;7.480;2022-12-24T15:08:14;13.80;99.90
851;DHT22;412;51.400;7.480;2022-12-24T15:10:43;13.80;99.90
851;DHT22;412;51.400;7.480;2022-12-24T15:15:58;13.70;99.90
851;DHT22;412;51.400;7.480;2022-12-24T15:18:31;13.70;99.90
851;DHT22;412;51.400;7.480;2022-12-24T15:21:00;13.70;99.90
851;DHT22;412;51.400;7.480;2022-12-24T15:23:32;13.70;99.90
851;DHT22;412;51.400;7.480;2022-12-24T15:26:25;13.60;99.90
851;DHT22;412;51.400;7.480;2022-12-24T15:28:53;13.60;99.90
851;DHT22;412;51.400;7.480;2022-12-24T15:31:21;13.60;99.90
851;DHT22;412;51.400;7.480;2022-12-24T15:33:54;13.60;99.90
851;DHT22;412;51.400;7.480;2022-12-24T15:36:34;13.60;99.90
851;DHT22;412;51.400;7.480;2022-12-24T15:39:06;13.50;99.90
851;DHT22;412;51.400;7.480;2022-12-24T15:41:39;13.50;99.90
851;DHT22;412;51.400;7.480;2022-12-24T15:44:27;13.40;99.90
851;DHT22;412;51.400;7.480;2022-12-24T15:47:06;13.40;99.90
851;DHT22;412;51.400;7.480;2022-12-24T15:49:33;13.40;99.90
851;DHT22;412;51.400;7.480;2022-12-24T15:52:08;13.40;99.90
851;DHT22;412;51.400;7.480;2022-12-24T15:54:35;13.40;99.90
851;DHT22;412;51.400;7.480;2022-12-24T15:59:54;13.40;99.90
851;DHT22;412;51.400;7.480;2022-12-24T16:02:41;13.40;99.90
851;DHT22;412;51.400;7.480;2022-12-24T16:05:26;13.40;99.90
851;DHT22;412;51.400;7.480;2022-12-24T16:10:47;13.40;99.90
851;DHT22;412;51.400;7.480;2022-12-24T16:13:21;13.40;99.90
851;DHT22;412;51.400;7.480;2022-12-24T16:15:54;13.40;99.90
851;DHT22;412;51.400;7.480;2022-12-24T16:18:33;13.40;99.90
851;DHT22;412;51.400;7.480;2022-12-24T16:20:59;13.40;99.90
851;DHT22;412;51.400;7.480;2022-12-24T16:23:31;13.40;99.90
851;DHT22;412;51.400;7.480;2022-12-24T16:25:58;13.30;99.90
851;DHT22;412;51.400;7.480;2022-12-24T16:28:25;13.30;99.90
851;DHT22;412;51.400;7.480;2022-12-24T16:30:51;13.20;99.90
851;DHT22;412;51.400;7.480;2022-12-24T16:33:20;13.20;99.90
851;DHT22;412;51.400;7.480;2022-12-24T16:35:47;13.10;99.90
851;DHT22;412;51.400;7.480;2022-12-24T16:38:13;13.10;99.90
851;DHT22;412;51.400;7.480;2022-12-24T16:40:40;13.20;99.90
851;DHT22;412;51.400;7.480;2022-12-24T16:43:06;13.10;99.90
851;DHT22;412;51.400;7.480;2022-12-24T16:45:50;13.20;99.90
851;DHT22;412;51.400;7.480;2022-12-24T16:48:24;13.10;99.90
851;DHT22;412;51.400;7.480;2022-12-24T16:50:51;13.10;99.90
851;DHT22;412;51.400;7.480;2022-12-24T16:53:18;13.10;99.90
851;DHT22;412;51.400;7.480;2022-12-24T16:55:44;13.10;99.90
851;DHT22;412;51.400;7.480;2022-12-24T16:58:13;13.00;99.90
851;DHT22;412;51.400;7.480;2022-12-24T17:00:40;13.00;99.90
851;DHT22;412;51.400;7.480;2022-12-24T17:03:06;13.00;99.90
851;DHT22;412;51.400;7.480;2022-12-24T17:05:32;13.00;99.90
851;DHT22;412;51.400;7.480;2022-12-24T17:07:59;13.00;99.90
851;DHT22;412;51.400;7.480;2022-12-24T17:10:25;13.10;99.90
851;DHT22;412;51.400;7.480;2022-12-24T17:12:51;13.00;99.90
851;DHT22;412;51.400;7.480;2022-12-24T17:15:17;12.90;99.90
851;DHT22;412;51.400;7.480;2022-12-24T17:17:42;12.90;99.90
851;DHT22;412;51.400;7.480;2022-12-24T17:20:09;12.80;99.90
851;DHT22;412;51.400;7.480;2022-12-24T17:22:35;12.80;99.90
851;DHT22;412;51.400;7.480;2022-12-24T17:25:01;12.80;99.90
851;DHT22;412;51.400;7.480;2022-12-24T17:27:27;12.70;99.90
851;DHT22;412;51.400;7.480;2022-12-24T17:29:55;12.60;99.90
851;DHT22;412;51.400;7.480;2022-12-24T17:32:21;12.50;99.90
851;DHT22;412;51.400;7.480;2022-12-24T17:34:46;12.50;99.90
851;DHT22;412;51.400;7.480;2022-12-24T17:37:12;12.50;99.90
851;DHT22;412;51.400;7.480;2022-12-24T17:39:38;12.50;99.90
851;DHT22;412;51.400;7.480;2022-12-24T17:42:04;12.40;99.90
851;DHT22;412;51.400;7.480;2022-12-24T17:44:29;12.40;99.90
851;DHT22;412;51.400;7.480;2022-12-24T17:46:55;12.40;99.90
851;DHT22;412;51.400;7.480;2022-12-24T17:49:21;12.30;99.90
851;DHT22;412;51.400;7.480;2022-12-24T17:51:46;12.30;99.90
851;DHT22;412;51.400;7.480;2022-12-24T17:54:13;12.20;99.90
851;DHT22;412;51.400;7.480;2022-12-24T17:56:38;12.20;99.90
851;DHT22;412;51.400;7.480;2022-12-24T17:59:04;12.10;99.90
851;DHT22;412;51.400;7.480;2022-12-24T18:01:30;12.00;99.90
851;DHT22;412;51.400;7.480;2022-12-24T18:03:58;12.00;99.90
851;DHT22;412;51.400;7.480;2022-12-24T18:06:24;11.90;99.90
851;DHT22;412;51.400;7.480;2022-12-24T18:08:50;11.90;99.90
851;DHT22;412;51.400;7.480;2022-12-24T18:13:47;11.80;99.90
851;DHT22;412;51.400;7.480;2022-12-24T18:16:16;11.80;99.90
851;DHT22;412;51.400;7.480;2022-12-24T18:18:42;11.70;99.90
851;DHT22;412;51.400;7.480;2022-12-24T18:21:08;11.70;99.90
851;DHT22;412;51.400;7.480;2022-12-24T18:23:35;11.60;99.90
851;DHT22;412;51.400;7.480;2022-12-24T18:26:04;11.60;99.90
851;DHT22;412;51.400;7.480;2022-12-24T18:28:30;11.50;99.90
851;DHT22;412;51.400;7.480;2022-12-24T18:31:01;11.50;99.90
851;DHT22;412;51.400;7.480;2022-12-24T18:33:28;11.50;99.90
851;DHT22;412;51.400;7.480;2022-12-24T18:35:53;11.60;99.90
851;DHT22;412;51.400;7.480;2022-12-24T18:38:19;11.50;99.90
851;DHT22;412;51.400;7.480;2022-12-24T18:40:45;11.50;99.90
851;DHT22;412;51.400;7.480;2022-12-24T18:43:11;11.60;99.90
851;DHT22;412;51.400;7.480;2022-12-24T18:45:40;11.60;99.90
851;DHT22;412;51.400;7.480;2022-12-24T18:48:06;11.70;99.90
851;DHT22;412;51.400;7.480;2022-12-24T18:50:32;11.70;99.90
851;DHT22;412;51.400;7.480;2022-12-24T18:52:58;11.60;99.90
851;DHT22;412;51.400;7.480;2022-12-24T18:55:24;11.60;99.90
851;DHT22;412;51.400;7.480;2022-12-24T18:57:49;11.60;99.90
851;DHT22;412;51.400;7.480;2022-12-24T19:00:15;11.50;99.90
851;DHT22;412;51.400;7.480;2022-12-24T19:02:41;11.50;99.90
851;DHT22;412;51.400;7.480;2022-12-24T19:05:07;11.50;99.90
851;DHT22;412;51.400;7.480;2022-12-24T19:07:32;11.40;99.90
851;DHT22;412;51.400;7.480;2022-12-24T19:09:59;11.40;99.90
851;DHT22;412;51.400;7.480;2022-12-24T19:12:25;11.40;99.90
851;DHT22;412;51.400;7.480;2022-12-24T19:14:51;11.30;99.90
851;DHT22;412;51.400;7.480;2022-12-24T19:17:17;11.30;99.90
851;DHT22;412;51.400;7.480;2022-12-24T19:19:42;11.30;99.90
851;DHT22;412;51.400;7.480;2022-12-24T19:22:08;11.30;99.90
851;DHT22;412;51.400;7.480;2022-12-24T19:24:34;11.20;99.90
851;DHT22;412;51.400;7.480;2022-12-24T19:26:59;11.20;99.90
851;DHT22;412;51.400;7.480;2022-12-24T19:29:25;11.20;99.90
851;DHT22;412;51.400;7.480;2022-12-24T19:31:51;11.20;99.90
851;DHT22;412;51.400;7.480;2022-12-24T19:34:16;11.20;99.90
851;DHT22;412;51.400;7.480;2022-12-24T19:36:42;11.20;99.90
851;DHT22;412;51.400;7.480;2022-12-24T19:39:08;11.20;99.90
851;DHT22;412;51.400;7.480;2022-12-24T19:41:33;11.10;99.90
851;DHT22;412;51.400;7.480;2022-12-24T19:44:00;11.10;99.90
851;DHT22;412;51.400;7.480;2022-12-24T19:46:29;11.10;99.90
851;DHT22;412;51.400;7.480;2022-12-24T19:48:57;11.10;99.90
851;DHT22;412;51.400;7.480;2022-12-24T19:51:24;11.00;99.90
851;DHT22;412;51.400;7.480;2022-12-24T19:53:52;11.00;99.90
851;DHT22;412;51.400;7.480;2022-12-24T19:56:19;11.00;99.90
851;DHT22;412;51.400;7.480;2022-12-24T19:58:45;10.90;99.90
851;DHT22;412;51.400;7.480;2022-12-24T20:01:13;10.90;99.90
851;DHT22;412;51.400;7.480;2022-12-24T20:03:40;10.90;99.90
851;DHT22;412;51.400;7.480;2022-12-24T20:06:06;10.90;99.90
851;DHT22;412;51.400;7.480;2022-12-24T20:08:34;10.90;99.90
851;DHT22;412;51.400;7.480;2022-12-24T20:11:03;10.90;99.90
851;DHT22;412;51.400;7.480;2022-12-24T20:13:36;11.00;99.90
851;DHT22;412;51.400;7.480;2022-12-24T20:16:04;11.00;99.90
851;DHT22;412;51.400;7.480;2022-12-24T20:18:30;11.00;99.90
851;DHT22;412;51.400;7.480;2022-12-24T20:21:00;11.00;99.90
851;DHT22;412;51.400;7.480;2022-12-24T20:23:27;11.00;99.90
851;DHT22;412;51.400;7.480;2022-12-24T20:25:57;11.00;99.90
851;DHT22;412;51.400;7.480;2022-12-24T20:28:27;11.00;99.90